createdAt,value
2022-08-28T00:02:04.829Z,99.90
2022-08-28T00:04:31.924Z,99.90
2022-08-28T00:06:59.324Z,99.90
2022-08-28T00:09:26.186Z,99.90
2022-08-28T00:11:53.632Z,99.90
2022-08-28T00:14:21.168Z,99.90
2022-08-28T00:16:49.010Z,99.90
2022-08-28T00:19:17.283Z,99.90
2022-08-28T00:21:44.581Z,99.90
2022-08-28T00:24:11.878Z,99.90
2022-08-28T00:27:00.037Z,99.90
2022-08-28T00:29:27.112Z,99.90
2022-08-28T00:31:55.675Z,99.90
2022-08-28T00:34:25.464Z,99.90
2022-08-28T00:37:00.450Z,99.90
2022-08-28T00:39:28.016Z,99.90
2022-08-28T00:41:57.159Z,99.90
2022-08-28T00:44:25.758Z,99.90
2022-08-28T00:46:54.222Z,99.90
2022-08-28T00:49:26.441Z,99.90
2022-08-28T00:52:05.909Z,99.90
2022-08-28T00:54:36.781Z,99.90
2022-08-28T00:57:06.218Z,99.90
2022-08-28T00:59:33.562Z,99.90
2022-08-28T01:02:00.675Z,99.90
2022-08-28T01:04:31.387Z,99.90
2022-08-28T01:06:58.694Z,99.90
2022-08-28T01:09:28.276Z,99.90
2022-08-28T01:11:56.665Z,99.90
2022-08-28T01:14:23.805Z,99.90
2022-08-28T01:16:55.718Z,99.90
2022-08-28T01:19:47.115Z,99.90
2022-08-28T01:22:28.774Z,99.90
2022-08-28T01:24:59.298Z,99.90
2022-08-28T01:27:26.355Z,99.90
2022-08-28T01:29:53.354Z,99.90
2022-08-28T01:35:33.015Z,99.90
2022-08-28T01:38:12.514Z,99.90
2022-08-28T01:40:46.724Z,99.90
2022-08-28T01:43:20.327Z,99.90
2022-08-28T01:46:02.005Z,99.90
2022-08-28T01:48:36.246Z,99.90
2022-08-28T01:54:39.088Z,99.90
2022-08-28T01:57:33.949Z,99.90
2022-08-28T02:00:19.295Z,99.90
2022-08-28T02:05:56.863Z,99.90
2022-08-28T02:08:42.651Z,99.90
2022-08-28T02:17:23.897Z,99.90
2022-08-28T02:19:55.590Z,99.90
2022-08-28T02:22:22.813Z,99.90
2022-08-28T02:24:56.698Z,99.90
2022-08-28T02:27:38.906Z,99.90
2022-08-28T02:30:16.828Z,99.90
2022-08-28T02:33:05.165Z,99.90
2022-08-28T02:35:33.313Z,99.90
2022-08-28T02:38:08.052Z,99.90
2022-08-28T02:40:42.329Z,99.90
2022-08-28T02:46:11.539Z,99.90
2022-08-28T02:48:44.231Z,99.90
2022-08-28T02:51:22.999Z,99.90
2022-08-28T02:54:07.152Z,99.90
2022-08-28T02:56:48.338Z,99.90
2022-08-28T03:02:20.290Z,99.90
2022-08-28T03:05:41.240Z,99.90
2022-08-28T03:08:28.156Z,99.90
2022-08-28T03:11:35.390Z,99.90
2022-08-28T03:14:09.119Z,99.90
2022-08-28T03:16:56.125Z,99.90
2022-08-28T03:19:59.570Z,99.90
2022-08-28T04:47:49.115Z,99.90
2022-08-28T04:50:37.481Z,99.90
2022-08-28T04:59:09.874Z,99.90
2022-08-28T05:01:51.349Z,99.90
2022-08-28T05:04:35.365Z,99.90
2022-08-28T05:17:51.876Z,99.90
2022-08-28T05:20:45.479Z,99.90
2022-08-28T05:23:18.257Z,99.90
2022-08-28T05:26:19.209Z,99.90
2022-08-28T05:29:23.781Z,99.90
2022-08-28T05:31:57.525Z,99.90
2022-08-28T05:34:34.393Z,99.90
2022-08-28T05:37:11.640Z,99.90
2022-08-28T05:39:44.092Z,99.90
2022-08-28T06:02:36.093Z,99.90
2022-08-28T06:05:03.327Z,99.90
2022-08-28T06:07:30.088Z,99.90
2022-08-28T06:09:57.477Z,99.90
2022-08-28T06:12:24.204Z,99.90
2022-08-28T06:14:51.285Z,99.90
2022-08-28T06:17:18.080Z,99.90
2022-08-28T06:19:50.432Z,99.90
2022-08-28T06:22:18.423Z,99.90
2022-08-28T06:24:45.141Z,99.90
2022-08-28T06:27:11.832Z,99.90
2022-08-28T06:29:40.113Z,99.90
2022-08-28T06:32:06.918Z,99.90
2022-08-28T06:34:34.003Z,99.90
2022-08-28T06:37:00.761Z,99.90
2022-08-28T06:39:27.535Z,99.90
2022-08-28T06:41:54.335Z,99.90
2022-08-28T06:44:21.489Z,99.90
2022-08-28T06:46:49.733Z,99.90
2022-08-28T06:49:16.445Z,99.90
2022-08-28T06:51:43.747Z,99.90
2022-08-28T06:54:10.499Z,99.90
2022-08-28T06:56:38.399Z,99.90
2022-08-28T06:59:05.392Z,99.90
2022-08-28T07:01:34.809Z,99.90
2022-08-28T07:04:04.258Z,99.90
2022-08-28T07:06:32.937Z,99.90
2022-08-28T07:08:59.697Z,99.90
2022-08-28T07:11:29.016Z,99.90
2022-08-28T07:13:56.078Z,99.90
2022-08-28T07:16:25.077Z,99.90
2022-08-28T07:18:51.954Z,99.90
2022-08-28T07:21:18.825Z,99.90
2022-08-28T07:23:46.292Z,99.90
2022-08-28T07:26:15.642Z,99.90
2022-08-28T07:28:42.837Z,99.90
2022-08-28T07:31:14.695Z,99.90
2022-08-28T07:33:41.939Z,99.90
2022-08-28T07:36:15.726Z,99.90
2022-08-28T07:38:45.966Z,99.90
2022-08-28T07:41:14.606Z,99.90
2022-08-28T07:44:00.249Z,99.90
2022-08-28T07:46:27.005Z,99.90
2022-08-28T07:48:53.913Z,99.90
2022-08-28T07:51:20.799Z,99.90
2022-08-28T07:53:47.616Z,99.90
2022-08-28T07:56:14.400Z,99.90
2022-08-28T07:58:41.296Z,99.90
2022-08-28T08:01:08.093Z,99.90
2022-08-28T08:03:34.976Z,99.90
2022-08-28T08:06:03.383Z,99.90
2022-08-28T08:08:32.055Z,99.90
2022-08-28T08:11:04.185Z,99.90
2022-08-28T08:13:34.049Z,99.90
2022-08-28T08:16:03.252Z,99.90
2022-08-28T08:18:30.177Z,99.90
2022-08-28T08:20:57.525Z,99.90
2022-08-28T08:23:24.368Z,99.90
2022-08-28T08:25:58.252Z,99.90
2022-08-28T08:28:25.530Z,99.90
2022-08-28T08:31:21.291Z,99.90
2022-08-28T08:33:50.631Z,99.90
2022-08-28T08:36:19.322Z,99.90
2022-08-28T08:38:46.262Z,99.90
2022-08-28T08:41:21.744Z,99.90
2022-08-28T08:44:00.407Z,99.90
2022-08-28T08:46:35.658Z,99.90
2022-08-28T08:49:05.495Z,99.90
2022-08-28T08:51:44.065Z,99.90
2022-08-28T08:54:13.167Z,99.90
2022-08-28T08:56:41.123Z,99.90
2022-08-28T08:59:10.706Z,99.90
2022-08-28T09:01:42.470Z,99.90
2022-08-28T09:04:42.186Z,99.90
2022-08-28T09:07:52.644Z,99.90
2022-08-28T09:10:20.588Z,99.90
2022-08-28T09:12:56.117Z,99.90
2022-08-28T09:15:36.350Z,99.90
2022-08-28T09:18:18.473Z,99.90
2022-08-28T09:20:49.441Z,99.90
2022-08-28T09:23:16.370Z,99.90
2022-08-28T09:25:59.730Z,99.90
2022-08-28T09:28:34.331Z,99.90
2022-08-28T09:31:31.919Z,99.90
2022-08-28T09:34:25.221Z,99.90
2022-08-28T09:36:53.150Z,99.90
2022-08-28T09:39:30.060Z,99.90
2022-08-28T09:42:43.610Z,99.90
2022-08-28T09:45:14.149Z,99.90
2022-08-28T09:47:57.520Z,99.90
2022-08-28T09:50:31.378Z,99.90
2022-08-28T09:53:08.599Z,99.90
2022-08-28T09:55:55.730Z,99.90
2022-08-28T09:58:32.149Z,99.90
2022-08-28T10:01:13.382Z,99.90
2022-08-28T10:04:06.306Z,99.90
2022-08-28T10:06:36.036Z,99.90
2022-08-28T10:09:14.845Z,99.90
2022-08-28T10:11:44.567Z,99.90
2022-08-28T10:14:11.296Z,99.90
2022-08-28T10:16:44.751Z,99.90
2022-08-28T10:19:49.848Z,99.90
2022-08-28T10:22:20.017Z,99.90
2022-08-28T10:24:55.715Z,99.90
2022-08-28T10:27:31.664Z,99.90
2022-08-28T10:30:13.118Z,99.90
2022-08-28T10:32:46.011Z,99.90
2022-08-28T10:35:20.582Z,99.90
2022-08-28T10:38:29.084Z,99.90
2022-08-28T10:41:17.380Z,99.90
2022-08-28T10:43:52.431Z,99.90
2022-08-28T10:46:27.349Z,99.90
2022-08-28T10:49:11.265Z,99.90
2022-08-28T10:51:44.314Z,99.90
2022-08-28T10:54:23.688Z,99.90
2022-08-28T10:57:14.332Z,99.90
2022-08-28T10:59:42.076Z,99.90
2022-08-28T11:02:09.540Z,99.90
2022-08-28T11:04:36.425Z,99.90
2022-08-28T11:07:05.950Z,99.90
2022-08-28T11:09:41.303Z,99.90
2022-08-28T11:12:29.311Z,99.90
2022-08-28T11:14:56.009Z,99.90
2022-08-28T11:17:27.608Z,99.90
2022-08-28T11:20:03.809Z,99.90
2022-08-28T11:22:41.528Z,99.90
2022-08-28T11:25:26.474Z,99.90
2022-08-28T11:28:18.714Z,99.90
2022-08-28T11:30:47.627Z,99.90
2022-08-28T11:33:39.260Z,99.60
2022-08-28T11:36:13.805Z,99.90
2022-08-28T11:38:41.266Z,99.90
2022-08-28T11:41:14.609Z,99.30
2022-08-28T11:43:45.347Z,99.50
2022-08-28T11:46:12.290Z,98.20
2022-08-28T11:48:43.225Z,97.50
2022-08-28T11:51:26.305Z,97.50
2022-08-28T11:54:23.454Z,97.10
2022-08-28T11:57:31.772Z,97.20
2022-08-28T12:00:10.829Z,96.60
2022-08-28T12:02:40.571Z,96.10
2022-08-28T12:05:16.358Z,95.80
2022-08-28T12:07:44.924Z,95.90
2022-08-28T12:10:27.955Z,94.60
2022-08-28T12:13:01.969Z,95.20
2022-08-28T12:15:28.814Z,94.40
2022-08-28T12:17:57.731Z,93.40
2022-08-28T12:20:29.351Z,93.10
2022-08-28T12:22:59.521Z,93.00
2022-08-28T12:25:41.145Z,92.80
2022-08-28T12:28:19.508Z,92.50
2022-08-28T12:31:01.630Z,92.10
2022-08-28T12:33:46.459Z,91.80
2022-08-28T12:36:16.693Z,91.40
2022-08-28T12:38:48.978Z,91.30
2022-08-28T12:41:17.074Z,90.70
2022-08-28T12:43:46.669Z,90.60
2022-08-28T12:46:28.879Z,89.00
2022-08-28T12:49:00.625Z,88.60
2022-08-28T12:51:28.448Z,89.00
2022-08-28T12:54:00.306Z,90.10
2022-08-28T12:56:30.138Z,88.80
2022-08-28T12:58:57.076Z,89.40
2022-08-28T13:01:32.007Z,89.80
2022-08-28T13:03:59.660Z,89.90
2022-08-28T13:06:28.886Z,88.80
2022-08-28T13:09:05.916Z,88.40
2022-08-28T13:11:35.417Z,86.40
2022-08-28T13:14:02.430Z,86.90
2022-08-28T13:16:35.465Z,87.70
2022-08-28T13:19:05.476Z,88.50
2022-08-28T13:22:00.651Z,88.20
2022-08-28T13:24:28.654Z,88.40
2022-08-28T13:27:12.185Z,88.80
2022-08-28T13:30:20.112Z,88.30
2022-08-28T13:32:58.289Z,87.70
2022-08-28T13:35:25.009Z,86.30
2022-08-28T13:38:12.875Z,86.50
2022-08-28T13:40:57.563Z,85.00
2022-08-28T13:43:27.391Z,85.50
2022-08-28T13:45:54.302Z,85.70
2022-08-28T13:48:23.061Z,83.40
2022-08-28T13:50:52.551Z,83.30
2022-08-28T13:53:20.816Z,83.00
2022-08-28T13:55:48.527Z,82.70
2022-08-28T13:58:16.040Z,82.10
2022-08-28T14:00:45.557Z,82.00
2022-08-28T14:03:30.748Z,82.80
2022-08-28T14:05:57.464Z,82.70
2022-08-28T14:08:24.204Z,83.10
2022-08-28T14:10:50.892Z,83.20
2022-08-28T14:13:18.683Z,83.10
2022-08-28T14:15:45.726Z,83.40
2022-08-28T14:18:12.489Z,83.40
2022-08-28T14:20:39.239Z,82.50
2022-08-28T14:23:06.060Z,81.80
2022-08-28T14:25:37.112Z,81.60
2022-08-28T14:28:05.824Z,79.30
2022-08-28T14:30:32.555Z,79.30
2022-08-28T14:32:59.282Z,78.90
2022-08-28T14:35:26.854Z,77.80
2022-08-28T14:37:53.527Z,77.70
2022-08-28T14:40:20.471Z,77.00
2022-08-28T14:42:47.540Z,76.90
2022-08-28T14:45:14.262Z,76.30
2022-08-28T14:47:41.338Z,77.10
2022-08-28T14:50:08.593Z,76.90
2022-08-28T14:52:35.530Z,76.90
2022-08-28T14:55:02.320Z,75.80
2022-08-28T14:57:29.395Z,76.10
2022-08-28T14:59:56.151Z,75.50
2022-08-28T15:02:22.941Z,74.20
2022-08-28T15:04:49.792Z,73.30
2022-08-28T15:07:16.561Z,73.20
2022-08-28T15:09:43.368Z,72.60
2022-08-28T15:12:10.448Z,72.90
2022-08-28T15:14:37.254Z,73.20
2022-08-28T15:17:04.167Z,73.90
2022-08-28T15:19:31.178Z,74.60
2022-08-28T15:21:58.295Z,75.20
2022-08-28T15:24:31.007Z,75.40
2022-08-28T15:26:59.504Z,75.20
2022-08-28T15:29:29.918Z,76.00
2022-08-28T15:31:57.347Z,76.10
2022-08-28T15:34:25.181Z,76.30
2022-08-28T15:36:54.937Z,76.50
2022-08-28T15:39:42.331Z,77.20
2022-08-28T15:42:09.902Z,77.30
2022-08-28T15:44:36.689Z,76.80
2022-08-28T15:47:05.003Z,75.70
2022-08-28T15:49:32.728Z,75.10
2022-08-28T15:52:03.220Z,75.80
2022-08-28T15:54:31.825Z,75.30
2022-08-28T15:56:58.693Z,75.40
2022-08-28T15:59:25.750Z,76.20
2022-08-28T16:02:12.658Z,76.30
2022-08-28T16:04:39.577Z,76.10
2022-08-28T16:07:06.413Z,77.10
2022-08-28T16:09:33.232Z,77.10
2022-08-28T16:11:59.951Z,77.30
2022-08-28T16:14:26.691Z,76.80
2022-08-28T16:16:53.479Z,77.10
2022-08-28T16:19:20.511Z,77.30
2022-08-28T16:21:47.310Z,77.70
2022-08-28T16:24:14.129Z,78.40
2022-08-28T16:26:40.921Z,78.80
2022-08-28T16:29:07.636Z,80.00
2022-08-28T16:31:34.461Z,80.10
2022-08-28T16:34:03.011Z,80.60
2022-08-28T16:36:30.427Z,81.50
2022-08-28T16:39:03.446Z,82.00
2022-08-28T16:41:31.983Z,82.50
2022-08-28T16:43:58.878Z,83.10
2022-08-28T16:46:26.125Z,82.30
2022-08-28T16:48:53.313Z,83.00
2022-08-28T16:51:20.393Z,83.70
2022-08-28T16:53:47.298Z,84.80
2022-08-28T16:56:14.998Z,84.10
2022-08-28T16:58:42.406Z,84.20
2022-08-28T17:01:09.689Z,85.00
2022-08-28T17:03:38.169Z,85.60
2022-08-28T17:06:26.139Z,87.10
2022-08-28T17:08:56.645Z,88.10
2022-08-28T17:11:25.302Z,88.00
2022-08-28T17:13:52.261Z,88.10
2022-08-28T17:16:19.267Z,88.50
2022-08-28T17:18:48.197Z,89.10
2022-08-28T17:21:37.651Z,90.00
2022-08-28T17:24:04.596Z,90.10
2022-08-28T17:26:31.286Z,90.30
2022-08-28T17:28:58.060Z,90.30
2022-08-28T17:31:24.831Z,90.00
2022-08-28T17:33:51.622Z,90.20
2022-08-28T17:36:21.490Z,90.50
2022-08-28T17:39:01.716Z,90.70
2022-08-28T17:41:28.491Z,91.00
2022-08-28T17:43:55.263Z,91.40
2022-08-28T17:46:22.271Z,91.80
2022-08-28T17:48:55.883Z,91.90
2022-08-28T17:51:42.892Z,92.10
2022-08-28T17:54:16.775Z,92.20
2022-08-28T17:56:43.697Z,92.00
2022-08-28T17:59:11.480Z,92.10
2022-08-28T18:01:38.576Z,92.10
2022-08-28T18:04:05.458Z,91.70
2022-08-28T18:06:32.542Z,91.70
2022-08-28T18:08:59.337Z,91.50
2022-08-28T18:11:26.269Z,91.80
2022-08-28T18:13:53.148Z,92.20
2022-08-28T18:16:20.067Z,92.40
2022-08-28T18:18:46.880Z,92.70
2022-08-28T18:21:13.816Z,93.20
2022-08-28T18:23:40.624Z,93.40
2022-08-28T18:26:08.224Z,93.80
2022-08-28T18:28:34.996Z,94.00
2022-08-28T18:31:02.676Z,94.30
2022-08-28T18:33:29.717Z,94.70
2022-08-28T18:35:56.855Z,94.90
2022-08-28T18:38:25.501Z,95.30
2022-08-28T18:40:52.337Z,95.60
2022-08-28T18:43:20.284Z,96.10
2022-08-28T18:45:47.312Z,96.40
2022-08-28T18:48:14.163Z,96.70
2022-08-28T18:50:45.685Z,97.10
2022-08-28T18:53:13.990Z,97.40
2022-08-28T18:55:40.800Z,97.80
2022-08-28T18:58:07.665Z,98.10
2022-08-28T19:00:37.087Z,98.40
2022-08-28T19:03:04.470Z,98.70
2022-08-28T19:05:31.518Z,99.00
2022-08-28T19:08:00.392Z,99.40
2022-08-28T19:10:33.988Z,99.70
2022-08-28T19:13:01.363Z,99.90
2022-08-28T19:15:28.576Z,99.90
2022-08-28T19:17:55.371Z,99.90
2022-08-28T19:20:22.413Z,99.90
2022-08-28T19:22:49.146Z,99.90
2022-08-28T19:25:25.763Z,99.90
2022-08-28T19:27:56.407Z,99.90
2022-08-28T19:30:26.374Z,99.90
2022-08-28T19:32:53.273Z,99.90
2022-08-28T19:35:20.069Z,99.90
2022-08-28T19:37:50.309Z,99.90
2022-08-28T19:40:17.082Z,99.90
2022-08-28T19:42:43.818Z,99.90
2022-08-28T19:45:12.484Z,99.90
2022-08-28T19:47:40.063Z,99.90
2022-08-28T19:50:09.198Z,99.90
2022-08-28T19:52:36.568Z,99.90
2022-08-28T19:55:05.715Z,99.90
2022-08-28T19:57:33.145Z,99.90
2022-08-28T20:00:00.149Z,99.90
2022-08-28T20:02:28.489Z,99.90
2022-08-28T20:04:55.835Z,99.90
2022-08-28T20:07:24.811Z,99.90
2022-08-28T20:09:52.188Z,99.90
2022-08-28T20:12:19.866Z,99.90
2022-08-28T20:14:46.951Z,99.90
2022-08-28T20:17:14.070Z,99.90
2022-08-28T20:19:41.267Z,99.90
2022-08-28T20:22:08.108Z,99.90
2022-08-28T20:24:35.125Z,99.90
2022-08-28T20:27:01.927Z,99.90
2022-08-28T20:29:29.164Z,99.90
2022-08-28T20:31:56.080Z,99.90
2022-08-28T20:34:22.931Z,99.90
2022-08-28T20:36:49.828Z,99.90
2022-08-28T20:39:16.677Z,99.90
2022-08-28T20:41:44.428Z,99.90
2022-08-28T20:44:12.865Z,99.90
2022-08-28T20:46:41.699Z,99.90
2022-08-28T20:49:12.522Z,99.90
2022-08-28T20:51:58.893Z,99.90
2022-08-28T20:54:27.231Z,99.90
2022-08-28T20:56:54.247Z,99.90
2022-08-28T20:59:21.115Z,99.90
2022-08-28T21:01:52.491Z,99.90
2022-08-28T21:04:19.519Z,99.90
2022-08-28T21:06:49.217Z,99.90
2022-08-28T21:09:16.256Z,99.90
2022-08-28T21:11:43.426Z,99.90
2022-08-28T21:14:10.705Z,99.90
2022-08-28T21:16:38.172Z,99.90
2022-08-28T21:19:15.718Z,99.90
2022-08-28T21:21:43.707Z,99.90
2022-08-28T21:24:12.143Z,99.90
2022-08-28T21:26:46.339Z,99.90
2022-08-28T21:29:14.069Z,99.90
2022-08-28T21:31:44.444Z,99.90
2022-08-28T21:34:11.551Z,99.90
2022-08-28T21:36:38.660Z,99.90
2022-08-28T21:39:05.849Z,99.90
2022-08-28T21:41:33.541Z,99.90
2022-08-28T21:44:00.501Z,99.90
2022-08-28T21:46:27.839Z,99.90
2022-08-28T21:48:56.291Z,99.90
2022-08-28T21:51:23.802Z,99.90
2022-08-28T21:53:51.436Z,99.90
2022-08-28T21:56:26.417Z,99.90
2022-08-28T21:58:53.900Z,99.90
2022-08-28T22:01:21.524Z,99.90
2022-08-28T22:03:48.362Z,99.90
2022-08-28T22:06:17.237Z,99.90
2022-08-28T22:08:44.463Z,99.90
2022-08-28T22:11:11.272Z,99.90
2022-08-28T22:13:38.299Z,99.90
2022-08-28T22:16:05.806Z,99.90
2022-08-28T22:18:34.382Z,99.90
2022-08-28T22:21:21.699Z,99.90
2022-08-28T22:23:48.580Z,99.90
2022-08-28T22:26:17.472Z,99.90
2022-08-28T22:28:44.319Z,99.90
2022-08-28T22:31:11.157Z,99.90
2022-08-28T22:33:39.164Z,99.90
2022-08-28T22:36:06.149Z,99.90
2022-08-28T22:38:32.883Z,99.90
2022-08-28T22:40:59.591Z,99.90
2022-08-28T22:43:26.797Z,99.90
2022-08-28T22:45:53.631Z,99.90
2022-08-28T22:48:20.406Z,99.90
2022-08-28T22:50:47.532Z,99.90
2022-08-28T22:53:16.860Z,99.90
2022-08-28T22:55:43.740Z,99.90
2022-08-28T22:58:10.952Z,99.90
2022-08-28T23:00:38.395Z,99.90
2022-08-28T23:03:05.177Z,99.90
2022-08-28T23:05:32.097Z,99.90
2022-08-28T23:07:59.046Z,99.90
2022-08-28T23:10:48.307Z,99.90
2022-08-28T23:13:14.239Z,99.90
2022-08-28T23:15:41.441Z,99.90
2022-08-28T23:18:08.221Z,99.90
2022-08-28T23:20:34.956Z,99.90
2022-08-28T23:23:02.014Z,99.90
2022-08-28T23:25:28.873Z,99.90
2022-08-28T23:27:55.990Z,99.90
2022-08-28T23:30:22.984Z,99.90
2022-08-28T23:32:49.849Z,99.90
2022-08-28T23:35:17.222Z,99.90
2022-08-28T23:37:48.537Z,99.90
2022-08-28T23:40:17.992Z,99.90
2022-08-28T23:42:46.260Z,99.90
2022-08-28T23:45:16.248Z,99.90
2022-08-28T23:47:43.752Z,99.90
2022-08-28T23:50:21.614Z,99.90
2022-08-28T23:52:48.658Z,99.90
2022-08-28T23:55:16.091Z,99.90
2022-08-28T23:57:44.067Z,99.90
